sensor_id;sensor_type;location;lat;lon;timestamp;P1;durP1;ratioP1;P2;durP2;ratioP2
18711;SDS011;9485;49.386;8.674;2023-11-21T00:02:18;2.80;;;1.67;;
18711;SDS011;9485;49.386;8.674;2023-11-21T00:07:39;3.93;;;1.73;;
18711;SDS011;9485;49.386;8.674;2023-11-21T00:13:01;5.10;;;2.13;;
18711;SDS011;9485;49.386;8.674;2023-11-21T00:18:23;3.27;;;1.50;;
18711;SDS011;9485;49.386;8.674;2023-11-21T00:23:43;2.70;;;1.47;;
18711;SDS011;9485;49.386;8.674;2023-11-21T00:29:04;4.93;;;1.70;;
18711;SDS011;9485;49.386;8.674;2023-11-21T00:34:29;2.90;;;1.30;;
18711;SDS011;9485;49.386;8.674;2023-11-21T00:39:50;3.87;;;1.57;;
18711;SDS011;9485;49.386;8.674;2023-11-21T00:45:10;3.33;;;1.40;;
18711;SDS011;9485;49.386;8.674;2023-11-21T00:50:32;3.50;;;1.43;;
18711;SDS011;9485;49.386;8.674;2023-11-21T00:55:53;1.90;;;1.50;;
18711;SDS011;9485;49.386;8.674;2023-11-21T01:01:16;2.07;;;1.30;;
18711;SDS011;9485;49.386;8.674;2023-11-21T01:06:38;3.87;;;1.60;;
18711;SDS011;9485;49.386;8.674;2023-11-21T01:11:59;6.13;;;1.97;;
18711;SDS011;9485;49.386;8.674;2023-11-21T01:17:20;3.70;;;1.40;;
18711;SDS011;9485;49.386;8.674;2023-11-21T01:22:43;3.57;;;1.50;;
18711;SDS011;9485;49.386;8.674;2023-11-21T01:28:04;4.93;;;1.40;;
18711;SDS011;9485;49.386;8.674;2023-11-21T01:33:25;2.80;;;1.63;;
18711;SDS011;9485;49.386;8.674;2023-11-21T01:38:47;2.83;;;1.40;;
18711;SDS011;9485;49.386;8.674;2023-11-21T01:44:09;3.73;;;1.27;;
18711;SDS011;9485;49.386;8.674;2023-11-21T01:49:29;3.83;;;1.60;;
18711;SDS011;9485;49.386;8.674;2023-11-21T01:54:52;2.53;;;1.40;;
18711;SDS011;9485;49.386;8.674;2023-11-21T02:00:13;3.37;;;1.70;;
18711;SDS011;9485;49.386;8.674;2023-11-21T02:05:37;2.80;;;1.30;;
18711;SDS011;9485;49.386;8.674;2023-11-21T02:10:59;2.10;;;1.30;;
18711;SDS011;9485;49.386;8.674;2023-11-21T02:16:21;4.90;;;2.00;;
18711;SDS011;9485;49.386;8.674;2023-11-21T02:21:42;2.10;;;1.50;;
18711;SDS011;9485;49.386;8.674;2023-11-21T02:27:05;2.60;;;1.70;;
18711;SDS011;9485;49.386;8.674;2023-11-21T02:32:26;1.97;;;1.20;;
18711;SDS011;9485;49.386;8.674;2023-11-21T02:37:47;1.70;;;1.20;;
18711;SDS011;9485;49.386;8.674;2023-11-21T02:43:09;1.77;;;1.37;;
18711;SDS011;9485;49.386;8.674;2023-11-21T02:48:30;1.73;;;1.17;;
18711;SDS011;9485;49.386;8.674;2023-11-21T02:53:50;2.63;;;1.50;;
18711;SDS011;9485;49.386;8.674;2023-11-21T02:59:13;3.80;;;1.20;;
18711;SDS011;9485;49.386;8.674;2023-11-21T03:04:34;2.60;;;1.13;;
18711;SDS011;9485;49.386;8.674;2023-11-21T03:09:54;2.30;;;1.30;;
18711;SDS011;9485;49.386;8.674;2023-11-21T03:15:18;1.50;;;1.10;;
18711;SDS011;9485;49.386;8.674;2023-11-21T03:20:39;1.60;;;1.10;;
18711;SDS011;9485;49.386;8.674;2023-11-21T03:26:00;3.43;;;1.23;;
18711;SDS011;9485;49.386;8.674;2023-11-21T03:31:22;1.57;;;1.23;;
18711;SDS011;9485;49.386;8.674;2023-11-21T03:36:43;2.90;;;1.10;;
18711;SDS011;9485;49.386;8.674;2023-11-21T03:42:05;1.37;;;0.93;;
18711;SDS011;9485;49.386;8.674;2023-11-21T03:47:30;2.03;;;1.10;;
18711;SDS011;9485;49.386;8.674;2023-11-21T03:52:51;2.10;;;1.07;;
18711;SDS011;9485;49.386;8.674;2023-11-21T03:58:12;2.47;;;1.30;;
18711;SDS011;9485;49.386;8.674;2023-11-21T04:03:33;1.93;;;1.00;;
18711;SDS011;9485;49.386;8.674;2023-11-21T04:08:55;1.13;;;1.03;;
18711;SDS011;9485;49.386;8.674;2023-11-21T04:14:15;1.03;;;0.90;;
18711;SDS011;9485;49.386;8.674;2023-11-21T04:19:37;2.00;;;1.10;;
18711;SDS011;9485;49.386;8.674;2023-11-21T04:24:58;7.43;;;1.73;;
18711;SDS011;9485;49.386;8.674;2023-11-21T04:30:19;2.60;;;1.33;;
18711;SDS011;9485;49.386;8.674;2023-11-21T04:35:41;1.03;;;0.93;;
18711;SDS011;9485;49.386;8.674;2023-11-21T04:41:02;1.97;;;1.33;;
18711;SDS011;9485;49.386;8.674;2023-11-21T04:46:23;2.00;;;1.17;;
18711;SDS011;9485;49.386;8.674;2023-11-21T04:51:45;1.40;;;1.30;;
18711;SDS011;9485;49.386;8.674;2023-11-21T04:57:06;2.37;;;1.40;;
18711;SDS011;9485;49.386;8.674;2023-11-21T05:02:27;2.00;;;1.47;;
18711;SDS011;9485;49.386;8.674;2023-11-21T05:07:49;1.97;;;1.30;;
18711;SDS011;9485;49.386;8.674;2023-11-21T05:13:12;2.53;;;1.50;;
18711;SDS011;9485;49.386;8.674;2023-11-21T05:18:36;4.07;;;1.67;;
18711;SDS011;9485;49.386;8.674;2023-11-21T05:23:58;2.67;;;1.50;;
18711;SDS011;9485;49.386;8.674;2023-11-21T05:29:18;2.07;;;1.87;;
18711;SDS011;9485;49.386;8.674;2023-11-21T05:34:39;2.70;;;1.70;;
18711;SDS011;9485;49.386;8.674;2023-11-21T05:40:02;3.50;;;2.40;;
18711;SDS011;9485;49.386;8.674;2023-11-21T05:45:24;3.30;;;1.90;;
18711;SDS011;9485;49.386;8.674;2023-11-21T05:50:45;5.03;;;2.27;;
18711;SDS011;9485;49.386;8.674;2023-11-21T05:56:08;3.27;;;1.70;;
18711;SDS011;9485;49.386;8.674;2023-11-21T06:01:28;3.37;;;2.07;;
18711;SDS011;9485;49.386;8.674;2023-11-21T06:06:49;2.43;;;2.13;;
18711;SDS011;9485;49.386;8.674;2023-11-21T06:12:12;3.77;;;2.43;;
18711;SDS011;9485;49.386;8.674;2023-11-21T06:17:35;2.77;;;2.20;;
18711;SDS011;9485;49.386;8.674;2023-11-21T06:22:55;2.70;;;2.50;;
18711;SDS011;9485;49.386;8.674;2023-11-21T06:28:18;3.50;;;2.57;;
18711;SDS011;9485;49.386;8.674;2023-11-21T06:33:38;2.50;;;2.30;;
18711;SDS011;9485;49.386;8.674;2023-11-21T06:39:00;3.57;;;2.60;;
18711;SDS011;9485;49.386;8.674;2023-11-21T06:44:22;2.83;;;2.57;;
18711;SDS011;9485;49.386;8.674;2023-11-21T06:49:43;3.27;;;2.73;;
18711;SDS011;9485;49.386;8.674;2023-11-21T06:55:06;3.10;;;2.80;;
18711;SDS011;9485;49.386;8.674;2023-11-21T07:00:30;4.67;;;3.10;;
18711;SDS011;9485;49.386;8.674;2023-11-21T07:05:50;3.17;;;2.67;;
18711;SDS011;9485;49.386;8.674;2023-11-21T07:11:11;3.07;;;2.67;;
18711;SDS011;9485;49.386;8.674;2023-11-21T07:16:33;2.83;;;2.60;;
18711;SDS011;9485;49.386;8.674;2023-11-21T07:21:56;2.33;;;2.13;;
18711;SDS011;9485;49.386;8.674;2023-11-21T07:27:17;2.43;;;2.10;;
18711;SDS011;9485;49.386;8.674;2023-11-21T07:32:39;3.23;;;2.67;;
18711;SDS011;9485;49.386;8.674;2023-11-21T07:38:00;3.43;;;3.13;;
18711;SDS011;9485;49.386;8.674;2023-11-21T07:43:21;3.60;;;3.30;;
18711;SDS011;9485;49.386;8.674;2023-11-21T07:48:45;4.43;;;3.57;;
18711;SDS011;9485;49.386;8.674;2023-11-21T07:54:06;4.37;;;3.97;;
18711;SDS011;9485;49.386;8.674;2023-11-21T07:59:27;5.00;;;4.50;;
18711;SDS011;9485;49.386;8.674;2023-11-21T08:04:49;7.30;;;4.83;;
18711;SDS011;9485;49.386;8.674;2023-11-21T08:10:10;6.60;;;5.00;;
18711;SDS011;9485;49.386;8.674;2023-11-21T08:15:31;6.00;;;5.00;;
18711;SDS011;9485;49.386;8.674;2023-11-21T08:20:53;5.33;;;4.83;;
18711;SDS011;9485;49.386;8.674;2023-11-21T08:26:15;6.67;;;5.03;;
18711;SDS011;9485;49.386;8.674;2023-11-21T08:31:37;6.60;;;5.73;;
18711;SDS011;9485;49.386;8.674;2023-11-21T08:36:59;6.83;;;5.17;;
18711;SDS011;9485;49.386;8.674;2023-11-21T08:42:20;7.23;;;5.93;;
18711;SDS011;9485;49.386;8.674;2023-11-21T08:47:41;7.67;;;5.53;;
18711;SDS011;9485;49.386;8.674;2023-11-21T08:53:05;5.77;;;5.10;;
18711;SDS011;9485;49.386;8.674;2023-11-21T08:58:26;4.53;;;3.97;;
18711;SDS011;9485;49.386;8.674;2023-11-21T09:03:47;6.77;;;5.00;;
18711;SDS011;9485;49.386;8.674;2023-11-21T09:09:10;6.00;;;4.87;;
18711;SDS011;9485;49.386;8.674;2023-11-21T09:14:30;5.03;;;4.30;;
18711;SDS011;9485;49.386;8.674;2023-11-21T09:19:51;4.40;;;4.00;;
18711;SDS011;9485;49.386;8.674;2023-11-21T09:25:13;3.87;;;3.47;;
18711;SDS011;9485;49.386;8.674;2023-11-21T09:30:34;5.67;;;3.40;;
18711;SDS011;9485;49.386;8.674;2023-11-21T09:35:55;4.03;;;3.50;;
18711;SDS011;9485;49.386;8.674;2023-11-21T09:41:19;3.63;;;3.33;;
18711;SDS011;9485;49.386;8.674;2023-11-21T09:46:53;4.23;;;3.20;;
18711;SDS011;9485;49.386;8.674;2023-11-21T09:52:22;2.50;;;2.30;;
18711;SDS011;9485;49.386;8.674;2023-11-21T09:57:48;2.40;;;2.20;;
18711;SDS011;9485;49.386;8.674;2023-11-21T10:03:09;2.00;;;1.90;;
18711;SDS011;9485;49.386;8.674;2023-11-21T10:08:31;2.30;;;1.87;;
18711;SDS011;9485;49.386;8.674;2023-11-21T10:13:55;1.63;;;1.53;;
18711;SDS011;9485;49.386;8.674;2023-11-21T10:19:18;1.60;;;1.50;;
18711;SDS011;9485;49.386;8.674;2023-11-21T10:24:42;1.73;;;1.63;;
18711;SDS011;9485;49.386;8.674;2023-11-21T10:30:06;1.67;;;1.57;;
18711;SDS011;9485;49.386;8.674;2023-11-21T10:35:43;1.70;;;1.60;;
18711;SDS011;9485;49.386;8.674;2023-11-21T10:41:10;2.40;;;2.03;;
18711;SDS011;9485;49.386;8.674;2023-11-21T10:46:35;2.63;;;2.43;;
18711;SDS011;9485;49.386;8.674;2023-11-21T10:51:56;2.60;;;2.40;;
18711;SDS011;9485;49.386;8.674;2023-11-21T10:57:17;2.57;;;2.37;;
18711;SDS011;9485;49.386;8.674;2023-11-21T11:02:42;3.80;;;3.37;;
18711;SDS011;9485;49.386;8.674;2023-11-21T11:08:06;3.70;;;3.40;;
18711;SDS011;9485;49.386;8.674;2023-11-21T11:13:31;5.00;;;4.20;;
18711;SDS011;9485;49.386;8.674;2023-11-21T11:18:54;6.57;;;4.20;;
18711;SDS011;9485;49.386;8.674;2023-11-21T11:24:22;4.10;;;3.70;;
18711;SDS011;9485;49.386;8.674;2023-11-21T11:30:05;3.70;;;3.33;;
18711;SDS011;9485;49.386;8.674;2023-11-21T11:35:49;4.47;;;4.07;;
18711;SDS011;9485;49.386;8.674;2023-11-21T11:41:24;3.40;;;3.10;;
18711;SDS011;9485;49.386;8.674;2023-11-21T11:46:46;3.47;;;3.13;;
18711;SDS011;9485;49.386;8.674;2023-11-21T11:57:59;4.13;;;3.70;;
18711;SDS011;9485;49.386;8.674;2023-11-21T12:03:20;3.50;;;3.20;;
18711;SDS011;9485;49.386;8.674;2023-11-21T12:08:42;3.60;;;2.80;;
18711;SDS011;9485;49.386;8.674;2023-11-21T12:14:03;4.03;;;2.80;;
18711;SDS011;9485;49.386;8.674;2023-11-21T12:19:27;3.27;;;2.97;;
18711;SDS011;9485;49.386;8.674;2023-11-21T12:24:49;5.67;;;2.93;;
18711;SDS011;9485;49.386;8.674;2023-11-21T12:30:10;2.97;;;2.67;;
18711;SDS011;9485;49.386;8.674;2023-11-21T12:35:34;3.03;;;2.70;;
18711;SDS011;9485;49.386;8.674;2023-11-21T12:40:57;3.03;;;2.73;;
18711;SDS011;9485;49.386;8.674;2023-11-21T12:46:18;3.57;;;2.60;;
18711;SDS011;9485;49.386;8.674;2023-11-21T12:51:39;3.77;;;2.40;;
18711;SDS011;9485;49.386;8.674;2023-11-21T12:57:02;2.97;;;2.17;;
18711;SDS011;9485;49.386;8.674;2023-11-21T13:02:27;2.43;;;2.23;;
18711;SDS011;9485;49.386;8.674;2023-11-21T13:07:49;2.40;;;2.20;;
18711;SDS011;9485;49.386;8.674;2023-11-21T13:13:14;2.77;;;2.50;;
18711;SDS011;9485;49.386;8.674;2023-11-21T13:18:36;3.70;;;2.60;;
18711;SDS011;9485;49.386;8.674;2023-11-21T13:23:59;4.57;;;2.33;;
18711;SDS011;9485;49.386;8.674;2023-11-21T13:29:20;2.57;;;2.33;;
18711;SDS011;9485;49.386;8.674;2023-11-21T13:34:42;2.37;;;1.70;;
18711;SDS011;9485;49.386;8.674;2023-11-21T13:40:04;1.70;;;1.40;;
18711;SDS011;9485;49.386;8.674;2023-11-21T13:45:34;2.63;;;1.43;;
18711;SDS011;9485;49.386;8.674;2023-11-21T13:50:55;1.83;;;1.20;;
18711;SDS011;9485;49.386;8.674;2023-11-21T13:56:19;2.83;;;1.43;;
18711;SDS011;9485;49.386;8.674;2023-11-21T14:01:44;1.27;;;1.10;;
18711;SDS011;9485;49.386;8.674;2023-11-21T14:07:13;1.77;;;1.00;;
18711;SDS011;9485;49.386;8.674;2023-11-21T14:12:45;1.70;;;1.60;;
18711;SDS011;9485;49.386;8.674;2023-11-21T14:18:07;2.50;;;1.43;;
18711;SDS011;9485;49.386;8.674;2023-11-21T14:23:29;2.97;;;1.43;;
18711;SDS011;9485;49.386;8.674;2023-11-21T14:28:50;3.30;;;1.70;;
18711;SDS011;9485;49.386;8.674;2023-11-21T14:34:13;2.23;;;2.03;;
18711;SDS011;9485;49.386;8.674;2023-11-21T14:39:34;1.77;;;1.67;;
18711;SDS011;9485;49.386;8.674;2023-11-21T14:45:00;1.80;;;1.70;;
18711;SDS011;9485;49.386;8.674;2023-11-21T14:50:26;1.90;;;1.70;;
18711;SDS011;9485;49.386;8.674;2023-11-21T14:56:02;3.87;;;1.87;;
18711;SDS011;9485;49.386;8.674;2023-11-21T15:01:24;1.77;;;1.67;;
18711;SDS011;9485;49.386;8.674;2023-11-21T15:07:03;4.37;;;1.50;;
18711;SDS011;9485;49.386;8.674;2023-11-21T15:12:24;2.57;;;1.60;;
18711;SDS011;9485;49.386;8.674;2023-11-21T15:17:50;2.80;;;1.90;;
18711;SDS011;9485;49.386;8.674;2023-11-21T15:23:12;1.93;;;1.77;;
18711;SDS011;9485;49.386;8.674;2023-11-21T15:28:35;4.13;;;2.33;;
18711;SDS011;9485;49.386;8.674;2023-11-21T15:33:56;4.67;;;2.03;;
18711;SDS011;9485;49.386;8.674;2023-11-21T15:39:20;2.47;;;2.27;;
18711;SDS011;9485;49.386;8.674;2023-11-21T15:44:44;2.57;;;1.90;;
18711;SDS011;9485;49.386;8.674;2023-11-21T15:50:06;3.10;;;1.93;;
18711;SDS011;9485;49.386;8.674;2023-11-21T15:55:30;2.20;;;1.73;;
18711;SDS011;9485;49.386;8.674;2023-11-21T16:00:54;4.77;;;2.30;;
18711;SDS011;9485;49.386;8.674;2023-11-21T16:06:16;4.60;;;2.43;;
18711;SDS011;9485;49.386;8.674;2023-11-21T16:11:38;4.47;;;2.67;;
18711;SDS011;9485;49.386;8.674;2023-11-21T16:16:59;4.13;;;2.37;;
18711;SDS011;9485;49.386;8.674;2023-11-21T16:22:19;3.27;;;2.50;;
18711;SDS011;9485;49.386;8.674;2023-11-21T16:27:41;3.47;;;2.50;;
18711;SDS011;9485;49.386;8.674;2023-11-21T16:33:02;3.23;;;2.13;;
18711;SDS011;9485;49.386;8.674;2023-11-21T16:38:23;3.87;;;2.57;;
18711;SDS011;9485;49.386;8.674;2023-11-21T16:43:45;3.70;;;2.60;;
18711;SDS011;9485;49.386;8.674;2023-11-21T16:49:06;4.77;;;2.50;;
18711;SDS011;9485;49.386;8.674;2023-11-21T16:54:27;4.27;;;3.00;;
18711;SDS011;9485;49.386;8.674;2023-11-21T16:59:50;4.83;;;3.20;;
18711;SDS011;9485;49.386;8.674;2023-11-21T17:05:11;5.57;;;3.10;;
18711;SDS011;9485;49.386;8.674;2023-11-21T17:10:31;5.50;;;3.00;;
18711;SDS011;9485;49.386;8.674;2023-11-21T17:15:54;5.47;;;3.07;;
18711;SDS011;9485;49.386;8.674;2023-11-21T17:21:15;7.13;;;3.40;;
18711;SDS011;9485;49.386;8.674;2023-11-21T17:26:35;3.50;;;3.07;;
18711;SDS011;9485;49.386;8.674;2023-11-21T17:31:57;3.87;;;3.23;;
18711;SDS011;9485;49.386;8.674;2023-11-21T17:37:18;6.40;;;2.73;;
18711;SDS011;9485;49.386;8.674;2023-11-21T17:42:38;4.77;;;3.57;;
18711;SDS011;9485;49.386;8.674;2023-11-21T17:48:01;4.73;;;3.27;;
18711;SDS011;9485;49.386;8.674;2023-11-21T17:53:21;5.73;;;3.20;;
18711;SDS011;9485;49.386;8.674;2023-11-21T17:58:42;3.80;;;2.63;;
18711;SDS011;9485;49.386;8.674;2023-11-21T18:04:05;4.03;;;3.00;;
18711;SDS011;9485;49.386;8.674;2023-11-21T18:09:28;4.57;;;3.30;;
18711;SDS011;9485;49.386;8.674;2023-11-21T18:14:49;4.23;;;3.20;;
18711;SDS011;9485;49.386;8.674;2023-11-21T18:20:11;5.90;;;2.83;;
18711;SDS011;9485;49.386;8.674;2023-11-21T18:25:32;3.53;;;2.80;;
18711;SDS011;9485;49.386;8.674;2023-11-21T18:30:53;3.67;;;2.23;;
18711;SDS011;9485;49.386;8.674;2023-11-21T18:36:15;4.10;;;2.93;;
18711;SDS011;9485;49.386;8.674;2023-11-21T18:41:36;3.73;;;3.13;;
18711;SDS011;9485;49.386;8.674;2023-11-21T18:46:56;3.80;;;3.17;;
18711;SDS011;9485;49.386;8.674;2023-11-21T18:52:19;4.37;;;3.23;;
18711;SDS011;9485;49.386;8.674;2023-11-21T18:57:40;4.97;;;3.30;;
18711;SDS011;9485;49.386;8.674;2023-11-21T19:03:00;8.43;;;3.30;;
18711;SDS011;9485;49.386;8.674;2023-11-21T19:08:22;5.93;;;3.93;;
18711;SDS011;9485;49.386;8.674;2023-11-21T19:13:43;4.97;;;3.63;;
18711;SDS011;9485;49.386;8.674;2023-11-21T19:19:05;4.37;;;3.23;;
18711;SDS011;9485;49.386;8.674;2023-11-21T19:24:27;4.17;;;3.23;;
18711;SDS011;9485;49.386;8.674;2023-11-21T19:29:49;3.80;;;3.10;;
18711;SDS011;9485;49.386;8.674;2023-11-21T19:35:09;6.53;;;3.37;;
18711;SDS011;9485;49.386;8.674;2023-11-21T19:40:32;4.10;;;3.30;;
18711;SDS011;9485;49.386;8.674;2023-11-21T19:45:53;4.00;;;3.40;;
18711;SDS011;9485;49.386;8.674;2023-11-21T19:51:14;7.97;;;4.67;;
18711;SDS011;9485;49.386;8.674;2023-11-21T19:56:38;7.27;;;4.60;;
18711;SDS011;9485;49.386;8.674;2023-11-21T20:02:00;4.17;;;3.47;;
18711;SDS011;9485;49.386;8.674;2023-11-21T20:07:21;5.23;;;4.23;;
18711;SDS011;9485;49.386;8.674;2023-11-21T20:12:46;6.03;;;3.97;;
18711;SDS011;9485;49.386;8.674;2023-11-21T20:18:07;5.57;;;3.97;;
18711;SDS011;9485;49.386;8.674;2023-11-21T20:23:29;7.27;;;5.00;;
18711;SDS011;9485;49.386;8.674;2023-11-21T20:28:52;7.63;;;5.33;;
18711;SDS011;9485;49.386;8.674;2023-11-21T20:34:14;6.53;;;4.87;;
18711;SDS011;9485;49.386;8.674;2023-11-21T20:39:34;6.87;;;4.77;;
18711;SDS011;9485;49.386;8.674;2023-11-21T20:44:57;7.20;;;4.33;;
18711;SDS011;9485;49.386;8.674;2023-11-21T20:50:18;8.83;;;6.00;;
18711;SDS011;9485;49.386;8.674;2023-11-21T20:55:41;8.83;;;5.90;;
18711;SDS011;9485;49.386;8.674;2023-11-21T21:01:08;9.50;;;6.20;;
18711;SDS011;9485;49.386;8.674;2023-11-21T21:06:30;11.30;;;7.87;;
18711;SDS011;9485;49.386;8.674;2023-11-21T21:11:50;10.90;;;7.80;;
18711;SDS011;9485;49.386;8.674;2023-11-21T21:17:12;13.70;;;8.87;;
18711;SDS011;9485;49.386;8.674;2023-11-21T21:22:33;9.27;;;7.07;;
18711;SDS011;9485;49.386;8.674;2023-11-21T21:27:53;10.17;;;7.53;;
18711;SDS011;9485;49.386;8.674;2023-11-21T21:33:15;11.50;;;8.47;;
18711;SDS011;9485;49.386;8.674;2023-11-21T21:38:35;11.73;;;7.97;;
18711;SDS011;9485;49.386;8.674;2023-11-21T21:43:58;8.33;;;6.70;;
18711;SDS011;9485;49.386;8.674;2023-11-21T21:49:20;9.53;;;5.87;;
18711;SDS011;9485;49.386;8.674;2023-11-21T21:54:41;7.10;;;4.97;;
18711;SDS011;9485;49.386;8.674;2023-11-21T22:00:01;6.00;;;4.87;;
18711;SDS011;9485;49.386;8.674;2023-11-21T22:05:32;4.73;;;3.90;;
18711;SDS011;9485;49.386;8.674;2023-11-21T22:10:53;5.43;;;4.80;;
18711;SDS011;9485;49.386;8.674;2023-11-21T22:16:14;3.13;;;2.87;;
18711;SDS011;9485;49.386;8.674;2023-11-21T22:21:37;2.37;;;2.03;;
18711;SDS011;9485;49.386;8.674;2023-11-21T22:26:58;2.87;;;2.40;;
18711;SDS011;9485;49.386;8.674;2023-11-21T22:32:19;5.07;;;3.20;;
18711;SDS011;9485;49.386;8.674;2023-11-21T22:37:42;2.33;;;1.83;;
18711;SDS011;9485;49.386;8.674;2023-11-21T22:43:03;3.03;;;2.10;;
18711;SDS011;9485;49.386;8.674;2023-11-21T22:48:23;1.60;;;1.50;;
18711;SDS011;9485;49.386;8.674;2023-11-21T22:53:47;1.53;;;1.43;;
18711;SDS011;9485;49.386;8.674;2023-11-21T22:59:08;1.40;;;1.30;;
18711;SDS011;9485;49.386;8.674;2023-11-21T23:04:28;1.40;;;1.30;;
18711;SDS011;9485;49.386;8.674;2023-11-21T23:09:50;1.30;;;1.20;;
18711;SDS011;9485;49.386;8.674;2023-11-21T23:15:11;1.50;;;1.40;;
18711;SDS011;9485;49.386;8.674;2023-11-21T23:20:32;1.40;;;1.30;;
18711;SDS011;9485;49.386;8.674;2023-11-21T23:25:56;1.37;;;1.27;;
18711;SDS011;9485;49.386;8.674;2023-11-21T23:31:17;1.00;;;1.00;;
18711;SDS011;9485;49.386;8.674;2023-11-21T23:36:37;1.00;;;1.00;;
18711;SDS011;9485;49.386;8.674;2023-11-21T23:42:00;1.37;;;1.27;;
18711;SDS011;9485;49.386;8.674;2023-11-21T23:47:20;1.20;;;1.10;;
18711;SDS011;9485;49.386;8.674;2023-11-21T23:52:41;1.50;;;1.30;;
18711;SDS011;9485;49.386;8.674;2023-11-21T23:58:03;1.00;;;1.00;;
